Otis, Colorado
Current Conditions -  °F | °C
As of 10:53 AM on Thursday 23 Oct 2014 (Local Time) from KAKO Reporting Station
Clear Clear  
Wind Chill: 62°   Ceiling: Unl
Heat Index: 62°   Visibility: 10mi
Dew Point: 42°   Wind: 8mph
Humidity: 48%   Direction: 260°W
Pressure: 30.16"   Gusts: NA
Location:  40.15°N, 102.96°W
Report Text: KAKO 231653Z AUTO 26007KT 10SM CLR 17/06 A3016 RMK AO2 SLP183 T01670056
Loading
Personal Weather Stations






























Interactive Weather Map
Tropical Storm Tracking
New forecast layout! Learn more

10-Day Weather Forecast

Advertisements
Track Severe Weather on mobile